SBI920 URSS-UWLL
Flight info
| Callsign | SBI920 |
|---|---|
| Flight time | N/A |
| Altitude | 34000 |
| Route | ADNET1S ADNET W79 NZ B145 NOBLO/K0854F360 B145 ER G128 ST G900 OBABI/K0870F350 G900 KR P135 DAFOS T789 NEPNI NEPNI1E |
| Aircraft | A320/M-SDE3FGHIRWY/LB1 |
Departure
| Time | N/A |
|---|---|
| Airport | Sochi International Airport (URSS) |
Arrival
| Time | 2026-04-30 18:28 |
|---|---|
| Airport | Ulyanovsk Baratayevka Airport (UWLL) |
| Time | Latitude | Longitude | Altitude | Speed | Heading |
|---|---|---|---|---|---|
| 2026-04-30 17:39 | 52.18659 | 46.56574 | 17779 ft | 302 kts | 31° |
| 2026-04-30 17:41 | 52.33463 | 46.69171 | 15616 ft | 295 kts | 31° |
| 2026-04-30 17:42 | 52.37090 | 46.72268 | 15101 ft | 293 kts | 31° |
| 2026-04-30 17:42 | 52.42470 | 46.76876 | 14345 ft | 289 kts | 31° |
| 2026-04-30 17:43 | 52.46027 | 46.79935 | 13830 ft | 288 kts | 30° |
| 2026-04-30 17:44 | 52.51285 | 46.84444 | 13016 ft | 283 kts | 31° |
| 2026-04-30 17:44 | 52.56475 | 46.88910 | 12206 ft | 278 kts | 31° |
| 2026-04-30 17:46 | 52.64884 | 46.96181 | 10906 ft | 268 kts | 32° |
| 2026-04-30 17:47 | 52.71368 | 47.01797 | 9882 ft | 259 kts | 33° |
| 2026-04-30 17:48 | 52.77628 | 47.07248 | 8794 ft | 250 kts | 33° |
| 2026-04-30 17:48 | 52.82176 | 47.11214 | 7993 ft | 243 kts | 32° |
| 2026-04-30 17:49 | 52.88063 | 47.16369 | 6956 ft | 236 kts | 32° |
| 2026-04-30 17:50 | 52.93721 | 47.21346 | 6088 ft | 222 kts | 31° |
| 2026-04-30 17:51 | 52.97790 | 47.25001 | 6092 ft | 222 kts | 31° |
| 2026-04-30 17:52 | 53.01883 | 47.28654 | 6121 ft | 221 kts | 31° |
| 2026-04-30 17:53 | 53.08617 | 47.34631 | 6094 ft | 220 kts | 31° |
| 2026-04-30 17:54 | 53.13576 | 47.39040 | 6099 ft | 220 kts | 31° |
| 2026-04-30 17:55 | 53.19503 | 47.44461 | 6101 ft | 275 kts | 31° |
| 2026-04-30 17:56 | 53.26675 | 47.50851 | 6096 ft | 308 kts | 30° |
| 2026-04-30 17:57 | 53.32443 | 47.55991 | 6094 ft | 314 kts | 30° |
| 2026-04-30 17:58 | 53.38234 | 47.61157 | 6098 ft | 314 kts | 30° |
| 2026-04-30 17:59 | 53.45951 | 47.68147 | 6088 ft | 317 kts | 30° |
| 2026-04-30 18:00 | 53.54077 | 47.73959 | 6113 ft | 318 kts | 22° |
| 2026-04-30 18:00 | 53.60243 | 47.78033 | 6128 ft | 317 kts | 22° |
| 2026-04-30 18:01 | 53.64338 | 47.80756 | 6129 ft | 316 kts | 22° |
| 2026-04-30 18:02 | 53.70448 | 47.84925 | 6105 ft | 316 kts | 29° |
| 2026-04-30 18:02 | 53.76157 | 47.90546 | 6101 ft | 317 kts | 31° |
| 2026-04-30 18:03 | 53.82360 | 47.94273 | 5576 ft | 316 kts | 14° |
| 2026-04-30 18:04 | 53.88723 | 47.96755 | 5176 ft | 300 kts | 13° |
| 2026-04-30 18:05 | 53.96148 | 47.99604 | 5005 ft | 244 kts | 14° |
| 2026-04-30 18:06 | 54.02386 | 48.02105 | 4580 ft | 205 kts | 13° |
| 2026-04-30 18:07 | 54.06962 | 48.03913 | 3919 ft | 140 kts | 14° |
| 2026-04-30 18:08 | 54.09769 | 48.05019 | 3007 ft | 136 kts | 14° |
| 2026-04-30 18:09 | 54.13067 | 48.07701 | 2019 ft | 130 kts | 30° |
| 2026-04-30 18:10 | 54.16157 | 48.10944 | 2008 ft | 130 kts | 31° |
| 2026-04-30 18:11 | 54.19241 | 48.14229 | 1959 ft | 131 kts | 31° |
| 2026-04-30 18:11 | 54.21600 | 48.16591 | 1441 ft | 130 kts | 31° |
| 2026-04-30 18:12 | 54.23966 | 48.19052 | 945 ft | 136 kts | 39° |
| 2026-04-30 18:13 | 54.25472 | 48.21039 | 812 ft | 146 kts | 33° |
| 2026-04-30 18:13 | 54.27668 | 48.23787 | 1226 ft | 153 kts | 36° |
| 2026-04-30 18:14 | 54.29996 | 48.25130 | 1631 ft | 158 kts | 14° |
| 2026-04-30 18:15 | 54.31974 | 48.22956 | 2586 ft | 162 kts | 256° |
| 2026-04-30 18:15 | 54.30228 | 48.18091 | 3636 ft | 166 kts | 245° |
| 2026-04-30 18:16 | 54.29223 | 48.14992 | 4551 ft | 143 kts | 237° |
| 2026-04-30 18:16 | 54.28101 | 48.11516 | 4382 ft | 185 kts | 242° |
| 2026-04-30 18:17 | 54.27504 | 48.09450 | 4069 ft | 206 kts | 241° |
| 2026-04-30 18:17 | 54.26930 | 48.07140 | 3903 ft | 210 kts | 252° |
| 2026-04-30 18:17 | 54.25507 | 48.02695 | 4176 ft | 218 kts | 236° |
| 2026-04-30 18:18 | 54.24675 | 48.00480 | 4282 ft | 223 kts | 234° |
| 2026-04-30 18:18 | 54.23699 | 47.98385 | 4064 ft | 227 kts | 224° |
| 2026-04-30 18:18 | 54.22560 | 47.96598 | 4188 ft | 222 kts | 212° |
| 2026-04-30 18:18 | 54.21176 | 47.95426 | 4434 ft | 223 kts | 197° |
| 2026-04-30 18:19 | 54.19672 | 47.94790 | 4621 ft | 220 kts | 197° |
| 2026-04-30 18:19 | 54.18399 | 47.93550 | 5288 ft | 206 kts | 221° |
| 2026-04-30 18:19 | 54.17463 | 47.91731 | 5640 ft | 209 kts | 224° |
| 2026-04-30 18:19 | 54.16241 | 47.90297 | 5617 ft | 217 kts | 205° |
| 2026-04-30 18:20 | 54.14861 | 47.89224 | 5353 ft | 220 kts | 201° |
| 2026-04-30 18:20 | 54.13441 | 47.88212 | 5044 ft | 221 kts | 199° |
| 2026-04-30 18:20 | 54.11947 | 47.87894 | 4764 ft | 217 kts | 167° |
| 2026-04-30 18:20 | 54.10634 | 47.89055 | 4486 ft | 214 kts | 133° |
| 2026-04-30 18:21 | 54.09687 | 47.91021 | 4180 ft | 215 kts | 124° |
| 2026-04-30 18:21 | 54.08818 | 47.93103 | 3902 ft | 216 kts | 123° |
| 2026-04-30 18:21 | 54.07997 | 47.95236 | 3636 ft | 215 kts | 112° |
| 2026-04-30 18:21 | 54.07701 | 47.97677 | 3377 ft | 211 kts | 84° |
| 2026-04-30 18:22 | 54.08124 | 48.00019 | 3118 ft | 208 kts | 56° |
| 2026-04-30 18:22 | 54.10096 | 48.03588 | 2595 ft | 206 kts | 43° |
| 2026-04-30 18:22 | 54.11103 | 48.05275 | 2443 ft | 197 kts | 41° |
| 2026-04-30 18:23 | 54.12177 | 48.06647 | 2192 ft | 187 kts | 33° |
| 2026-04-30 18:23 | 54.13218 | 48.07791 | 2094 ft | 169 kts | 31° |
| 2026-04-30 18:23 | 54.14141 | 48.08785 | 2023 ft | 147 kts | 32° |
| 2026-04-30 18:23 | 54.14998 | 48.09706 | 2007 ft | 142 kts | 31° |
| 2026-04-30 18:24 | 54.16627 | 48.11445 | 2006 ft | 136 kts | 31° |
| 2026-04-30 18:24 | 54.17429 | 48.12298 | 2010 ft | 136 kts | 31° |
| 2026-04-30 18:24 | 54.18228 | 48.13150 | 2009 ft | 135 kts | 31° |
| 2026-04-30 18:25 | 54.19015 | 48.13990 | 2008 ft | 133 kts | 31° |
| 2026-04-30 18:25 | 54.20574 | 48.15659 | 1750 ft | 131 kts | 32° |
| 2026-04-30 18:25 | 54.21347 | 48.16491 | 1558 ft | 131 kts | 31° |
| 2026-04-30 18:26 | 54.22919 | 48.18163 | 1172 ft | 135 kts | 32° |
| 2026-04-30 18:26 | 54.23722 | 48.19006 | 1006 ft | 135 kts | 31° |
| 2026-04-30 18:26 | 54.24519 | 48.19882 | 793 ft | 137 kts | 31° |
| 2026-04-30 18:27 | 54.26119 | 48.21612 | 458 ft | 128 kts | 29° |
| 2026-04-30 18:27 | 54.26804 | 48.22313 | 422 ft | 98 kts | 30° |
| 2026-04-30 18:28 | 54.27637 | 48.23247 | 401 ft | 34 kts | 60° |
| 2026-04-30 18:28 | 54.27660 | 48.23454 | 398 ft | 6 kts | 76° |
| 2026-04-30 18:28 | 54.27660 | 48.23455 | 398 ft | 0 kts | 76° |
| 2026-04-30 18:29 | 54.27663 | 48.23472 | 396 ft | 4 kts | 76° |